Tombstone, AZ

11:54 PM MST on August 30, 2014 (GMT -0700)
Fort Huachuca | Change Station
CLOSE
Current Station
Airport
Location: Fort Huachuca,
Elevation: 4767 ft
Nearby Weather Stations

Elev 4767 ft 31.61 °N, 110.43 °W | Updated 58 minutes ago

Clear
Clear
74 °F
Feels Like 74 °F
N
12
Wind Variable Wind from SW

Today
High -- | Low -- °F
--% Chance of Precip.
Yesterday
High -- | Low -- °F
Precip. -- in
5:54 AM 6:46 PM
Waxing Crescent, 28% visible
Pressure 29.79 in
Visibility 10.0 miles
Clouds Clear
Dew Point 45 °F
Humidity 35%
Rainfall 0.00 in
Snow Depth Not available.
UV 0 out of 12
Pollen 6.60 out of 12
Air Quality Not available.
Flu Activity Not available.
METAR KALK 310556Z AUTO 22010KT 10SM CLR 23/07 A3009 RMK AO2 SLP087 T02330072 10317 20211 51005 TSNO $

More Conditions Fewer Conditions

Pressure 29.79 in
Visibility 10.0 miles
Clouds Clear
Dew Point 45 °F
Humidity 35%
Rainfall 0.00 in
Snow Depth Not available.
UV 0 out of 12
Pollen 6.60 out of 12
Air Quality Not available.
Flu Activity Not available.
METAR KALK 310556Z AUTO 22010KT 10SM CLR 23/07 A3009 RMK AO2 SLP087 T02330072 10317 20211 51005 TSNO $

More Conditions Fewer Conditions

10-Day Weather Forecast

Almanac

Astronomy

Aug. 30, 2014 Rise Set
Actual Time 5:54 AM MST 6:46 PM MST
Civil Twilight 5:29 AM MST 7:11 PM MST
Nautical Twilight 5:00 AM MST 7:40 PM MST
Astronomical Twilight 4:30 AM MST 8:10 PM MST
Moon 10:25 AM MST (8/30) 9:43 PM MST (8/30)
Length of Visible Light 13h 41m
Length of Day
12h 51m
Tomorrow will be 1m 51s shorter.
Waxing Crescent, 28% of the Moon is Illuminated
Aug 31
Waxing Crescent
Sep 2
First Quarter
Sep 8
Full
Sep 15
Last Quarter
Sep 24
New

Community

WunderPhotos

Upload Photos

1,748,800 photos uploaded!

Nearby

Snow Depth

Station Depth Elevation
Beaver Head 30 in 7990 ft
Coronado Trail 4 in 8400 ft
Workman Creek 2 in 6900 ft
Maverick Fork 0 in 9200 ft
Mormon Mountain 0 in 7500 ft

Earthquake Activity

City Distance Mag. Time & Date
No recent earthquake activity has been reported nearby.
Minimum magnitude displayed is 2.5.

Coastal Water Temperatures

Place Temperature
No Stations Reporting

Nearby Weather Stations